Portada
METAR-TAF:

METAR-TAF

Aeroports :

Lechfeld, Alemanya

latitud: 48-11N, longitud: 010-52E, altitud: 555 m

Observació

L'informe es va fer fa 34 minuts, a les 00:20 UTC
Vent 4 kt del Sud
Temperatura 3°C
Humitat 75%
Pressió 1020 hPa
Visibilitat 10 km o més

METAR: ETSL 040020Z AUTO 19004KT 9999 // ////// 03/M01 Q1020 ///

Hora: 02:54 (00:54 UTC)

Pronòstic

L'informe es va fer fa 14 hores i 26 minuts, a les 10:28 UTC
Pronòstic vàlid del 03 a les 10 UTC al 03 a les 17 UTC
Vent 8 kt del Sud-Oest
Visibilitat: 1030 m
Escasses núvols a una alçada de 7000 ft

TAF: ETSL 031028Z 0310/0317 23008KT 9999 NSW FEW070 CANCEL 1030 BY ETGL

Observacions i pronòstics meteorològics de més de 4000 aeroports (METAR i TAF).

Les estacions disponibles són els punts grocs i vermells al mapa.

Posi el ratolí al punt desitjat per veure el nom de l'estació.

Feu clic per veure les observacions i els pronòstics meteorològics.

Per canviar el mapa: feu clic els botons verds amb una creu de color negre per apropar; al botó verd amb un guió per allunyar la imatge; o en les fletxes verdes per a mapes adjacents.


METAR-TAF: